Vestborg — E5U2070 — position and weather

sailwx.info

Track history (hours):
 
Tides and Currents Weather Stations Pressure Air Temp Water Temp Dewpoint Dewpoint Depression Visibility Wind Speed Wind Dir Waves Ship Positions

Vestborg

Last reported at 2016-Feb-09 19:33 UTC. Time now 2016-Feb-14 01:46 UTC.
Position N 59°52' E 005°33'.

Length 66 m; draft 5 m.

Type: Cargo ship. MMSI: 518120000.

Date/timePositionNaut miles runAvg speedWind from/ knotsBaromVisibWave heightAir tempDewpointWater temp
2016-Feb-09 19:33N 59°52' E 005°33'9 8.7
2016-Feb-09 18:33N 59°44' E 005°30'9 9.2
2016-Feb-09 17:33N 59°37' E 005°17'25 8.4
2016-Feb-09 14:34N 59°12' E 005°21'7 7.4
2016-Feb-09 13:34N 59°06' E 005°31'8 8.1
2016-Feb-09 12:34N 59°01' E 005°42'3 3.1
2016-Feb-09 11:34N 58°58' E 005°45'0 0.0
2016-Feb-09 10:33N 58°58' E 005°45'0 0.0
2016-Feb-09 09:33N 58°58' E 005°45'0 0.0
2016-Feb-09 08:32N 58°58' E 005°45'0 0.0
2016-Feb-09 07:33N 58°58' E 005°45'0 0.0
2016-Feb-09 06:16N 58°58' E 005°45'0 0.0
2016-Feb-09 05:34N 58°58' E 005°45'2 1.8
2016-Feb-09 04:34N 58°60' E 005°48'4 3.6
2016-Feb-09 03:34N 59°01' E 005°42'6 6.2
2016-Feb-09 02:34N 59°05' E 005°32'7 7.4
2016-Feb-09 01:34N 59°09' E 005°20'7 7.3
2016-Feb-09 00:33N 59°17' E 005°20'11 8.4
2016-Feb-08 23:12N 59°27' E 005°13'5 7.5
2016-Feb-08 22:33N 59°32' E 005°12'7 7.2
2016-Feb-08 21:33N 59°39' E 005°19'7 7.4
2016-Feb-08 20:33N 59°44' E 005°29'7 7.2
2016-Feb-08 19:33N 59°51' E 005°32'1 0.0
2016-Feb-07 22:33N 59°52' E 005°33'8 7.9
2016-Feb-07 21:33N 59°44' E 005°30'8 8.2
2016-Feb-07 20:33N 59°38' E 005°19'9 8.2
2016-Feb-07 19:30N 59°30' E 005°13'16 8.2
2016-Feb-07 17:33N 59°15' E 005°23'8 8.0
2016-Feb-07 16:34N 59°10' E 005°35'9 8.9
2016-Feb-07 15:34N 59°05' E 005°50'9 9.2
2016-Feb-07 14:33N 58°57' E 005°58'8 1.7
2016-Feb-07 10:03N 58°52' E 006°09'4 7.3
2016-Feb-07 09:33N 58°54' E 006°03'8 7.7
2016-Feb-07 08:33N 58°59' E 005°52'8 7.6
2016-Feb-07 07:33N 59°02' E 005°38'6 6.4
2016-Feb-07 06:34N 58°56' E 005°33'10 9.8
2016-Feb-07 05:34N 58°47' E 005°26'1010.5
2016-Feb-07 04:33N 58°36' E 005°30'9 9.5
2016-Feb-07 03:33N 58°28' E 005°37'18 8.7
2016-Feb-07 01:28N 58°12' E 005°56'8 8.3
2016-Feb-07 00:33N 58°08' E 006°08'9 9.2
2016-Feb-06 23:33N 57°60' E 006°15'8 8.5
2016-Feb-06 22:33N 57°54' E 006°26'10 9.7
2016-Feb-06 21:33N 57°46' E 006°38'139 4.8
2016-Feb-05 16:33N 57°49' E 010°58'9 8.6
2016-Feb-05 15:33N 57°51' E 011°14'8 8.4
2016-Feb-05 14:33N 57°53' E 011°29'8 8.4
2016-Feb-05 13:33N 57°57' E 011°43'8 7.9
2016-Feb-05 12:33N 58°05' E 011°48'1 0.5
2016-Feb-05 11:33N 58°05' E 011°49'0 0.0
2016-Feb-05 10:33N 58°05' E 011°49'0 0.0
2016-Feb-05 09:33N 58°05' E 011°49'0 0.0
2016-Feb-05 08:33N 58°05' E 011°49'0 0.0
2016-Feb-05 07:33N 58°05' E 011°49'0 0.0
2016-Feb-05 06:33N 58°05' E 011°49'0 0.0
2016-Feb-05 05:33N 58°05' E 011°49'0 0.0
2016-Feb-05 04:33N 58°05' E 011°49'0 0.0
2016-Feb-05 03:33N 58°05' E 011°49'0 0.0
2016-Feb-05 02:33N 58°05' E 011°49'0 0.0
2016-Feb-05 01:33N 58°05' E 011°49'0 0.0
2016-Feb-05 00:33N 58°05' E 011°49'0 0.0
2016-Feb-04 23:33N 58°05' E 011°49'0 0.0
2016-Feb-04 22:33N 58°05' E 011°49'0 0.0
2016-Feb-04 21:33N 58°05' E 011°49'0 0.0
2016-Feb-04 20:33N 58°05' E 011°49'0 0.0
2016-Feb-04 19:33N 58°05' E 011°49'0 0.0
2016-Feb-04 18:33N 58°05' E 011°49'1 0.7
2016-Feb-04 17:33N 58°05' E 011°48'0 0.3
2016-Feb-04 16:33N 58°05' E 011°47'0 0.2
2016-Feb-04 15:33N 58°05' E 011°47'4 4.3
2016-Feb-04 14:33N 58°01' E 011°46'6 6.4
2016-Feb-04 13:33N 57°55' E 011°39'8 8.0
2016-Feb-04 12:33N 57°51' E 011°27'8 8.0
2016-Feb-04 11:33N 57°44' E 011°19'8 8.0
2016-Feb-04 10:33N 57°37' E 011°11'8 7.8
2016-Feb-04 09:33N 57°31' E 011°02'8 8.4
2016-Feb-04 08:33N 57°24' E 010°53'24 0.5
2016-Feb-02 08:30N 57°47' E 010°35'106 8.5
2016-Feb-01 20:03N 57°54' E 007°17'5 8.0
2016-Feb-01 19:24N 57°54' E 007°07'7 8.3
2016-Feb-01 18:33N 57°57' E 006°55'8 8.5
2016-Feb-01 17:33N 58°01' E 006°41'11 8.4
2016-Feb-01 16:18N 58°07' E 006°25'6 8.1
2016-Feb-01 15:33N 58°12' E 006°17'8 7.7
2016-Feb-01 14:33N 58°17' E 006°06'7 7.1
2016-Feb-01 13:34N 58°21' E 005°55'6 5.5
2016-Feb-01 12:31N 58°26' E 005°51'3 3.0
2016-Feb-01 11:34N 58°28' E 005°55'0 0.0
2016-Feb-01 10:33N 58°28' E 005°55'0 0.0
2016-Feb-01 09:33N 58°28' E 005°55'0 0.0
2016-Feb-01 08:32N 58°28' E 005°55'0 0.0
2016-Feb-01 07:32N 58°28' E 005°55'0 0.0
2016-Feb-01 06:33N 58°28' E 005°55'3 3.3
2016-Feb-01 05:33N 58°25' E 005°52'9 8.9
2016-Feb-01 04:33N 58°19' E 006°04'8 8.1
2016-Feb-01 03:33N 58°14' E 006°16'8 8.1
2016-Feb-01 02:33N 58°08' E 006°27'8 7.9
2016-Feb-01 01:33N 58°03' E 006°38'8 8.3
2016-Feb-01 00:34N 58°00' E 006°53'8 7.9
2016-Jan-31 23:33N 57°58' E 007°07'8 8.4
2016-Jan-31 22:33N 57°58' E 007°23'27 7.7
2016-Jan-31 19:05N 58°04' E 008°12'4 8.0
2016-Jan-31 18:33N 58°07' E 008°18'9 8.7
2016-Jan-31 17:33N 58°13' E 008°30'9 8.6
2016-Jan-31 16:33N 58°19' E 008°42'35 8.7
2016-Jan-31 12:32N 58°46' E 009°26'9 8.7
2016-Jan-31 11:28N 58°51' E 009°40'24 8.0
2016-Jan-31 08:28N 58°59' E 010°24'7 7.2
2016-Jan-31 07:33N 59°03' E 010°34'8 7.6
2016-Jan-31 06:34N 59°10' E 010°38'9 8.7
2016-Jan-31 05:33N 59°19' E 010°35'9 8.8
2016-Jan-31 04:33N 59°27' E 010°31'5 4.5
2016-Jan-31 03:33N 59°30' E 010°23'0 0.0
2016-Jan-31 02:33N 59°30' E 010°23'0 0.0
2016-Jan-31 01:33N 59°30' E 010°23'0 0.0
2016-Jan-31 00:33N 59°30' E 010°23'0 0.0
2016-Jan-30 23:33N 59°30' E 010°23'0 0.0
2016-Jan-30 22:33N 59°30' E 010°23'0 0.0
2016-Jan-30 21:33N 59°30' E 010°23'0 0.0
2016-Jan-30 20:33N 59°30' E 010°23'0 0.0
2016-Jan-30 19:33N 59°30' E 010°23'  
Track history (hours):
 
Tides and Currents Weather Stations Pressure Air Temp Water Temp Dewpoint Dewpoint Depression Visibility Wind Speed Wind Dir Waves Ship Positions

Vestborg

Last reported at 2016-Feb-09 19:33 UTC. Time now 2016-Feb-14 01:47 UTC.
Position N 59°52' E 005°33'.

Length 66 m; draft 5 m.

Type: Cargo ship. MMSI: 518120000.

Date/timePositionNaut miles runAvg speedWind from/ knotsBaromVisibWave heightAir tempDewpointWater temp
2016-Feb-09 19:33N 59°52' E 005°33'9 8.7
2016-Feb-09 18:33N 59°44' E 005°30'9 9.2
2016-Feb-09 17:33N 59°37' E 005°17'25 8.4
2016-Feb-09 14:34N 59°12' E 005°21'7 7.4
2016-Feb-09 13:34N 59°06' E 005°31'8 8.1
2016-Feb-09 12:34N 59°01' E 005°42'3 3.1
2016-Feb-09 11:34N 58°58' E 005°45'0 0.0
2016-Feb-09 10:33N 58°58' E 005°45'0 0.0
2016-Feb-09 09:33N 58°58' E 005°45'0 0.0
2016-Feb-09 08:32N 58°58' E 005°45'0 0.0
2016-Feb-09 07:33N 58°58' E 005°45'0 0.0
2016-Feb-09 06:16N 58°58' E 005°45'0 0.0
2016-Feb-09 05:34N 58°58' E 005°45'2 1.8
2016-Feb-09 04:34N 58°60' E 005°48'4 3.6
2016-Feb-09 03:34N 59°01' E 005°42'6 6.2
2016-Feb-09 02:34N 59°05' E 005°32'7 7.4
2016-Feb-09 01:34N 59°09' E 005°20'7 7.3
2016-Feb-09 00:33N 59°17' E 005°20'11 8.4
2016-Feb-08 23:12N 59°27' E 005°13'5 7.5
2016-Feb-08 22:33N 59°32' E 005°12'7 7.2
2016-Feb-08 21:33N 59°39' E 005°19'7 7.4
2016-Feb-08 20:33N 59°44' E 005°29'7 7.2
2016-Feb-08 19:33N 59°51' E 005°32'1 0.0
2016-Feb-07 22:33N 59°52' E 005°33'8 7.9
2016-Feb-07 21:33N 59°44' E 005°30'8 8.2
2016-Feb-07 20:33N 59°38' E 005°19'9 8.2
2016-Feb-07 19:30N 59°30' E 005°13'16 8.2
2016-Feb-07 17:33N 59°15' E 005°23'8 8.0
2016-Feb-07 16:34N 59°10' E 005°35'9 8.9
2016-Feb-07 15:34N 59°05' E 005°50'9 9.2
2016-Feb-07 14:33N 58°57' E 005°58'8 1.7
2016-Feb-07 10:03N 58°52' E 006°09'4 7.3
2016-Feb-07 09:33N 58°54' E 006°03'8 7.7
2016-Feb-07 08:33N 58°59' E 005°52'8 7.6
2016-Feb-07 07:33N 59°02' E 005°38'6 6.4
2016-Feb-07 06:34N 58°56' E 005°33'10 9.8
2016-Feb-07 05:34N 58°47' E 005°26'1010.5
2016-Feb-07 04:33N 58°36' E 005°30'9 9.5
2016-Feb-07 03:33N 58°28' E 005°37'18 8.7
2016-Feb-07 01:28N 58°12' E 005°56'8 8.3
2016-Feb-07 00:33N 58°08' E 006°08'9 9.2
2016-Feb-06 23:33N 57°60' E 006°15'8 8.5
2016-Feb-06 22:33N 57°54' E 006°26'10 9.7
2016-Feb-06 21:33N 57°46' E 006°38'139 4.8
2016-Feb-05 16:33N 57°49' E 010°58'9 8.6
2016-Feb-05 15:33N 57°51' E 011°14'8 8.4
2016-Feb-05 14:33N 57°53' E 011°29'8 8.4
2016-Feb-05 13:33N 57°57' E 011°43'8 7.9
2016-Feb-05 12:33N 58°05' E 011°48'1 0.5
2016-Feb-05 11:33N 58°05' E 011°49'0 0.0
2016-Feb-05 10:33N 58°05' E 011°49'0 0.0
2016-Feb-05 09:33N 58°05' E 011°49'0 0.0
2016-Feb-05 08:33N 58°05' E 011°49'0 0.0
2016-Feb-05 07:33N 58°05' E 011°49'0 0.0
2016-Feb-05 06:33N 58°05' E 011°49'0 0.0
2016-Feb-05 05:33N 58°05' E 011°49'0 0.0
2016-Feb-05 04:33N 58°05' E 011°49'0 0.0
2016-Feb-05 03:33N 58°05' E 011°49'0 0.0
2016-Feb-05 02:33N 58°05' E 011°49'0 0.0
2016-Feb-05 01:33N 58°05' E 011°49'0 0.0
2016-Feb-05 00:33N 58°05' E 011°49'0 0.0
2016-Feb-04 23:33N 58°05' E 011°49'0 0.0
2016-Feb-04 22:33N 58°05' E 011°49'0 0.0
2016-Feb-04 21:33N 58°05' E 011°49'0 0.0
2016-Feb-04 20:33N 58°05' E 011°49'0 0.0
2016-Feb-04 19:33N 58°05' E 011°49'0 0.0
2016-Feb-04 18:33N 58°05' E 011°49'1 0.7
2016-Feb-04 17:33N 58°05' E 011°48'0 0.3
2016-Feb-04 16:33N 58°05' E 011°47'0 0.2
2016-Feb-04 15:33N 58°05' E 011°47'4 4.3
2016-Feb-04 14:33N 58°01' E 011°46'6 6.4
2016-Feb-04 13:33N 57°55' E 011°39'8 8.0
2016-Feb-04 12:33N 57°51' E 011°27'8 8.0
2016-Feb-04 11:33N 57°44' E 011°19'8 8.0
2016-Feb-04 10:33N 57°37' E 011°11'8 7.8
2016-Feb-04 09:33N 57°31' E 011°02'8 8.4
2016-Feb-04 08:33N 57°24' E 010°53'24 0.5
2016-Feb-02 08:30N 57°47' E 010°35'106 8.5
2016-Feb-01 20:03N 57°54' E 007°17'5 8.0
2016-Feb-01 19:24N 57°54' E 007°07'7 8.3
2016-Feb-01 18:33N 57°57' E 006°55'8 8.5
2016-Feb-01 17:33N 58°01' E 006°41'11 8.4
2016-Feb-01 16:18N 58°07' E 006°25'6 8.1
2016-Feb-01 15:33N 58°12' E 006°17'8 7.7
2016-Feb-01 14:33N 58°17' E 006°06'7 7.1
2016-Feb-01 13:34N 58°21' E 005°55'6 5.5
2016-Feb-01 12:31N 58°26' E 005°51'3 3.0
2016-Feb-01 11:34N 58°28' E 005°55'0 0.0
2016-Feb-01 10:33N 58°28' E 005°55'0 0.0
2016-Feb-01 09:33N 58°28' E 005°55'0 0.0
2016-Feb-01 08:32N 58°28' E 005°55'0 0.0
2016-Feb-01 07:32N 58°28' E 005°55'0 0.0
2016-Feb-01 06:33N 58°28' E 005°55'3 3.3
2016-Feb-01 05:33N 58°25' E 005°52'9 8.9
2016-Feb-01 04:33N 58°19' E 006°04'8 8.1
2016-Feb-01 03:33N 58°14' E 006°16'8 8.1
2016-Feb-01 02:33N 58°08' E 006°27'8 7.9
2016-Feb-01 01:33N 58°03' E 006°38'8 8.3
2016-Feb-01 00:34N 58°00' E 006°53'8 7.9
2016-Jan-31 23:33N 57°58' E 007°07'8 8.4
2016-Jan-31 22:33N 57°58' E 007°23'27 7.7
2016-Jan-31 19:05N 58°04' E 008°12'4 8.0
2016-Jan-31 18:33N 58°07' E 008°18'9 8.7
2016-Jan-31 17:33N 58°13' E 008°30'9 8.6
2016-Jan-31 16:33N 58°19' E 008°42'35 8.7
2016-Jan-31 12:32N 58°46' E 009°26'9 8.7
2016-Jan-31 11:28N 58°51' E 009°40'24 8.0
2016-Jan-31 08:28N 58°59' E 010°24'7 7.2
2016-Jan-31 07:33N 59°03' E 010°34'8 7.6
2016-Jan-31 06:34N 59°10' E 010°38'9 8.7
2016-Jan-31 05:33N 59°19' E 010°35'9 8.8
2016-Jan-31 04:33N 59°27' E 010°31'5 4.5
2016-Jan-31 03:33N 59°30' E 010°23'0 0.0
2016-Jan-31 02:33N 59°30' E 010°23'0 0.0
2016-Jan-31 01:33N 59°30' E 010°23'0 0.0
2016-Jan-31 00:33N 59°30' E 010°23'0 0.0
2016-Jan-30 23:33N 59°30' E 010°23'0 0.0
2016-Jan-30 22:33N 59°30' E 010°23'0 0.0
2016-Jan-30 21:33N 59°30' E 010°23'0 0.0
2016-Jan-30 20:33N 59°30' E 010°23'0 0.0
2016-Jan-30 19:33N 59°30' E 010°23'  

Dump ship's entire track history